sensor_id;sensor_type;location;lat;lon;timestamp;P1;durP1;ratioP1;P2;durP2;ratioP2
11048;SDS011;5577;42.706;23.160;2022-12-13T00:00:09;8.47;;;5.70;;
11048;SDS011;5577;42.706;23.160;2022-12-13T00:02:57;9.63;;;6.00;;
11048;SDS011;5577;42.706;23.160;2022-12-13T00:05:44;8.90;;;5.47;;
11048;SDS011;5577;42.706;23.160;2022-12-13T00:08:28;10.57;;;5.63;;
11048;SDS011;5577;42.706;23.160;2022-12-13T00:11:13;9.83;;;7.00;;
11048;SDS011;5577;42.706;23.160;2022-12-13T00:13:57;10.77;;;6.37;;
11048;SDS011;5577;42.706;23.160;2022-12-13T00:16:43;9.90;;;5.90;;
11048;SDS011;5577;42.706;23.160;2022-12-13T00:19:28;6.67;;;4.70;;
11048;SDS011;5577;42.706;23.160;2022-12-13T00:22:12;9.30;;;6.00;;
11048;SDS011;5577;42.706;23.160;2022-12-13T00:24:56;9.20;;;5.77;;
11048;SDS011;5577;42.706;23.160;2022-12-13T00:27:40;12.67;;;7.90;;
11048;SDS011;5577;42.706;23.160;2022-12-13T00:30:24;10.53;;;6.50;;
11048;SDS011;5577;42.706;23.160;2022-12-13T00:33:08;8.63;;;6.27;;
11048;SDS011;5577;42.706;23.160;2022-12-13T00:35:52;9.00;;;6.00;;
11048;SDS011;5577;42.706;23.160;2022-12-13T00:38:37;9.93;;;6.27;;
11048;SDS011;5577;42.706;23.160;2022-12-13T00:41:21;8.40;;;6.20;;
11048;SDS011;5577;42.706;23.160;2022-12-13T00:44:05;8.63;;;5.80;;
11048;SDS011;5577;42.706;23.160;2022-12-13T00:46:49;8.37;;;5.27;;
11048;SDS011;5577;42.706;23.160;2022-12-13T00:49:35;6.40;;;4.70;;
11048;SDS011;5577;42.706;23.160;2022-12-13T00:52:19;7.07;;;4.93;;
11048;SDS011;5577;42.706;23.160;2022-12-13T00:55:03;7.00;;;5.10;;
11048;SDS011;5577;42.706;23.160;2022-12-13T00:57:48;8.77;;;5.37;;
11048;SDS011;5577;42.706;23.160;2022-12-13T01:00:32;6.37;;;4.90;;
11048;SDS011;5577;42.706;23.160;2022-12-13T01:03:16;7.30;;;5.07;;
11048;SDS011;5577;42.706;23.160;2022-12-13T01:06:09;6.27;;;4.43;;
11048;SDS011;5577;42.706;23.160;2022-12-13T01:08:54;6.13;;;4.63;;
11048;SDS011;5577;42.706;23.160;2022-12-13T01:11:38;7.03;;;4.90;;
11048;SDS011;5577;42.706;23.160;2022-12-13T01:14:22;7.53;;;5.30;;
11048;SDS011;5577;42.706;23.160;2022-12-13T01:17:06;8.37;;;5.47;;
11048;SDS011;5577;42.706;23.160;2022-12-13T01:19:51;8.93;;;6.03;;
11048;SDS011;5577;42.706;23.160;2022-12-13T01:22:35;8.67;;;6.27;;
11048;SDS011;5577;42.706;23.160;2022-12-13T01:25:18;11.03;;;7.03;;
11048;SDS011;5577;42.706;23.160;2022-12-13T01:28:03;10.00;;;6.67;;
11048;SDS011;5577;42.706;23.160;2022-12-13T01:30:57;9.03;;;6.17;;
11048;SDS011;5577;42.706;23.160;2022-12-13T01:33:52;9.77;;;6.23;;
11048;SDS011;5577;42.706;23.160;2022-12-13T01:36:36;8.93;;;5.67;;
11048;SDS011;5577;42.706;23.160;2022-12-13T01:39:21;9.43;;;6.40;;
11048;SDS011;5577;42.706;23.160;2022-12-13T01:42:05;8.00;;;4.93;;
11048;SDS011;5577;42.706;23.160;2022-12-13T01:47:45;8.53;;;5.43;;
11048;SDS011;5577;42.706;23.160;2022-12-13T01:50:41;10.70;;;6.17;;
11048;SDS011;5577;42.706;23.160;2022-12-13T01:53:30;7.07;;;5.20;;
11048;SDS011;5577;42.706;23.160;2022-12-13T01:56:20;8.33;;;5.63;;
11048;SDS011;5577;42.706;23.160;2022-12-13T01:59:09;6.73;;;5.03;;
11048;SDS011;5577;42.706;23.160;2022-12-13T02:01:54;6.93;;;4.73;;
11048;SDS011;5577;42.706;23.160;2022-12-13T02:07:51;7.80;;;4.10;;
11048;SDS011;5577;42.706;23.160;2022-12-13T02:10:36;5.60;;;4.03;;
11048;SDS011;5577;42.706;23.160;2022-12-13T02:13:21;6.60;;;4.30;;
11048;SDS011;5577;42.706;23.160;2022-12-13T02:16:13;5.77;;;4.13;;
11048;SDS011;5577;42.706;23.160;2022-12-13T02:36:12;5.77;;;4.10;;
11048;SDS011;5577;42.706;23.160;2022-12-13T02:39:09;5.87;;;3.87;;
11048;SDS011;5577;42.706;23.160;2022-12-13T02:42:20;6.77;;;4.30;;
11048;SDS011;5577;42.706;23.160;2022-12-13T02:45:22;6.37;;;4.40;;
11048;SDS011;5577;42.706;23.160;2022-12-13T02:48:13;5.43;;;3.90;;
11048;SDS011;5577;42.706;23.160;2022-12-13T02:51:02;7.03;;;4.83;;
11048;SDS011;5577;42.706;23.160;2022-12-13T02:53:48;6.90;;;4.27;;
11048;SDS011;5577;42.706;23.160;2022-12-13T02:56:32;8.63;;;4.83;;
11048;SDS011;5577;42.706;23.160;2022-12-13T02:59:16;6.67;;;4.30;;
11048;SDS011;5577;42.706;23.160;2022-12-13T03:05:29;6.20;;;4.47;;
11048;SDS011;5577;42.706;23.160;2022-12-13T03:15:42;8.33;;;4.90;;
11048;SDS011;5577;42.706;23.160;2022-12-13T03:18:35;8.80;;;4.97;;
11048;SDS011;5577;42.706;23.160;2022-12-13T03:21:20;6.07;;;4.10;;
11048;SDS011;5577;42.706;23.160;2022-12-13T03:24:05;7.03;;;4.83;;
11048;SDS011;5577;42.706;23.160;2022-12-13T03:26:49;7.03;;;4.53;;
11048;SDS011;5577;42.706;23.160;2022-12-13T03:29:34;6.50;;;4.57;;
11048;SDS011;5577;42.706;23.160;2022-12-13T03:32:18;7.83;;;5.00;;
11048;SDS011;5577;42.706;23.160;2022-12-13T03:35:02;9.37;;;5.57;;
11048;SDS011;5577;42.706;23.160;2022-12-13T03:37:47;9.03;;;6.33;;
11048;SDS011;5577;42.706;23.160;2022-12-13T03:40:31;8.13;;;5.63;;
11048;SDS011;5577;42.706;23.160;2022-12-13T03:43:16;7.77;;;5.10;;
11048;SDS011;5577;42.706;23.160;2022-12-13T03:46:00;6.53;;;5.07;;
11048;SDS011;5577;42.706;23.160;2022-12-13T03:48:44;8.00;;;5.20;;
11048;SDS011;5577;42.706;23.160;2022-12-13T03:51:28;7.57;;;4.53;;
11048;SDS011;5577;42.706;23.160;2022-12-13T03:54:12;6.73;;;4.43;;
11048;SDS011;5577;42.706;23.160;2022-12-13T03:56:57;7.77;;;4.67;;
11048;SDS011;5577;42.706;23.160;2022-12-13T03:59:41;6.33;;;4.53;;
11048;SDS011;5577;42.706;23.160;2022-12-13T04:02:25;8.10;;;4.77;;
11048;SDS011;5577;42.706;23.160;2022-12-13T04:05:08;6.63;;;4.80;;
11048;SDS011;5577;42.706;23.160;2022-12-13T04:07:52;5.93;;;4.43;;
11048;SDS011;5577;42.706;23.160;2022-12-13T04:10:36;8.97;;;5.17;;
11048;SDS011;5577;42.706;23.160;2022-12-13T04:13:20;6.60;;;4.13;;
11048;SDS011;5577;42.706;23.160;2022-12-13T04:16:16;7.27;;;4.67;;
11048;SDS011;5577;42.706;23.160;2022-12-13T04:19:00;6.10;;;4.73;;
11048;SDS011;5577;42.706;23.160;2022-12-13T04:21:44;7.70;;;4.70;;
11048;SDS011;5577;42.706;23.160;2022-12-13T04:24:28;6.13;;;4.70;;
11048;SDS011;5577;42.706;23.160;2022-12-13T04:27:12;7.80;;;4.60;;
11048;SDS011;5577;42.706;23.160;2022-12-13T04:29:56;7.97;;;4.97;;
11048;SDS011;5577;42.706;23.160;2022-12-13T04:32:40;9.47;;;5.40;;
11048;SDS011;5577;42.706;23.160;2022-12-13T04:35:24;18.63;;;11.87;;
11048;SDS011;5577;42.706;23.160;2022-12-13T04:38:08;15.37;;;9.63;;
11048;SDS011;5577;42.706;23.160;2022-12-13T04:40:52;12.23;;;7.10;;
11048;SDS011;5577;42.706;23.160;2022-12-13T04:43:36;22.20;;;11.30;;
11048;SDS011;5577;42.706;23.160;2022-12-13T04:46:20;14.10;;;8.10;;
11048;SDS011;5577;42.706;23.160;2022-12-13T04:49:05;40.23;;;17.07;;
11048;SDS011;5577;42.706;23.160;2022-12-13T04:51:49;28.17;;;13.27;;
11048;SDS011;5577;42.706;23.160;2022-12-13T04:54:33;28.07;;;13.07;;
11048;SDS011;5577;42.706;23.160;2022-12-13T04:57:16;31.20;;;13.90;;
11048;SDS011;5577;42.706;23.160;2022-12-13T05:00:01;21.60;;;12.57;;
11048;SDS011;5577;42.706;23.160;2022-12-13T05:02:47;22.13;;;12.40;;
11048;SDS011;5577;42.706;23.160;2022-12-13T05:05:31;13.23;;;6.97;;
11048;SDS011;5577;42.706;23.160;2022-12-13T05:08:15;16.87;;;9.57;;
11048;SDS011;5577;42.706;23.160;2022-12-13T05:10:59;11.93;;;7.40;;
11048;SDS011;5577;42.706;23.160;2022-12-13T05:13:43;14.67;;;8.37;;
11048;SDS011;5577;42.706;23.160;2022-12-13T05:16:27;13.87;;;7.63;;
11048;SDS011;5577;42.706;23.160;2022-12-13T05:19:11;15.33;;;7.63;;
11048;SDS011;5577;42.706;23.160;2022-12-13T05:21:55;15.47;;;9.90;;
11048;SDS011;5577;42.706;23.160;2022-12-13T05:24:39;15.53;;;9.33;;
11048;SDS011;5577;42.706;23.160;2022-12-13T05:27:27;24.33;;;13.53;;
11048;SDS011;5577;42.706;23.160;2022-12-13T05:30:11;41.70;;;23.80;;
11048;SDS011;5577;42.706;23.160;2022-12-13T05:32:55;36.00;;;20.43;;
11048;SDS011;5577;42.706;23.160;2022-12-13T05:35:39;30.13;;;17.63;;
11048;SDS011;5577;42.706;23.160;2022-12-13T05:38:23;23.80;;;15.07;;
11048;SDS011;5577;42.706;23.160;2022-12-13T05:41:09;15.33;;;9.90;;
11048;SDS011;5577;42.706;23.160;2022-12-13T05:43:58;13.73;;;8.83;;
11048;SDS011;5577;42.706;23.160;2022-12-13T05:46:42;12.37;;;8.10;;
11048;SDS011;5577;42.706;23.160;2022-12-13T05:49:26;12.97;;;7.70;;
11048;SDS011;5577;42.706;23.160;2022-12-13T05:52:14;12.93;;;8.43;;
11048;SDS011;5577;42.706;23.160;2022-12-13T05:55:00;19.87;;;11.87;;
11048;SDS011;5577;42.706;23.160;2022-12-13T05:57:44;18.47;;;10.97;;
11048;SDS011;5577;42.706;23.160;2022-12-13T06:00:28;21.50;;;12.57;;
11048;SDS011;5577;42.706;23.160;2022-12-13T06:03:12;19.77;;;13.20;;
11048;SDS011;5577;42.706;23.160;2022-12-13T06:05:59;20.87;;;12.17;;
11048;SDS011;5577;42.706;23.160;2022-12-13T06:08:43;33.13;;;16.97;;
11048;SDS011;5577;42.706;23.160;2022-12-13T06:11:27;48.43;;;23.23;;
11048;SDS011;5577;42.706;23.160;2022-12-13T06:14:11;23.57;;;12.40;;
11048;SDS011;5577;42.706;23.160;2022-12-13T06:16:55;40.80;;;25.10;;
11048;SDS011;5577;42.706;23.160;2022-12-13T06:19:40;20.37;;;12.83;;
11048;SDS011;5577;42.706;23.160;2022-12-13T06:22:24;23.53;;;14.40;;
11048;SDS011;5577;42.706;23.160;2022-12-13T06:25:08;75.97;;;38.87;;
11048;SDS011;5577;42.706;23.160;2022-12-13T06:27:52;50.53;;;27.00;;
11048;SDS011;5577;42.706;23.160;2022-12-13T06:30:36;29.50;;;16.67;;
11048;SDS011;5577;42.706;23.160;2022-12-13T06:33:20;21.20;;;13.93;;
11048;SDS011;5577;42.706;23.160;2022-12-13T06:36:05;19.73;;;13.23;;
11048;SDS011;5577;42.706;23.160;2022-12-13T06:38:50;43.93;;;22.00;;
11048;SDS011;5577;42.706;23.160;2022-12-13T06:41:33;42.87;;;21.93;;
11048;SDS011;5577;42.706;23.160;2022-12-13T06:44:18;31.23;;;16.93;;
11048;SDS011;5577;42.706;23.160;2022-12-13T06:47:02;26.73;;;15.20;;
11048;SDS011;5577;42.706;23.160;2022-12-13T06:49:47;25.10;;;15.33;;
11048;SDS011;5577;42.706;23.160;2022-12-13T06:52:31;29.93;;;17.27;;
11048;SDS011;5577;42.706;23.160;2022-12-13T06:55:15;23.03;;;14.17;;
11048;SDS011;5577;42.706;23.160;2022-12-13T06:57:58;50.17;;;29.23;;
11048;SDS011;5577;42.706;23.160;2022-12-13T07:00:42;41.83;;;25.60;;
11048;SDS011;5577;42.706;23.160;2022-12-13T07:03:26;36.33;;;20.73;;
11048;SDS011;5577;42.706;23.160;2022-12-13T07:06:14;38.57;;;20.77;;
11048;SDS011;5577;42.706;23.160;2022-12-13T07:09:00;42.80;;;23.60;;
11048;SDS011;5577;42.706;23.160;2022-12-13T07:11:44;29.73;;;17.30;;
11048;SDS011;5577;42.706;23.160;2022-12-13T07:14:28;29.10;;;15.43;;
11048;SDS011;5577;42.706;23.160;2022-12-13T07:17:12;17.00;;;10.73;;
11048;SDS011;5577;42.706;23.160;2022-12-13T07:19:56;16.73;;;10.67;;
11048;SDS011;5577;42.706;23.160;2022-12-13T07:22:40;20.53;;;13.10;;
11048;SDS011;5577;42.706;23.160;2022-12-13T07:25:24;37.23;;;21.07;;
11048;SDS011;5577;42.706;23.160;2022-12-13T07:28:08;25.93;;;13.70;;
11048;SDS011;5577;42.706;23.160;2022-12-13T07:30:52;17.00;;;11.17;;
11048;SDS011;5577;42.706;23.160;2022-12-13T07:33:36;22.60;;;14.23;;
11048;SDS011;5577;42.706;23.160;2022-12-13T07:36:21;30.83;;;16.93;;
11048;SDS011;5577;42.706;23.160;2022-12-13T07:39:06;16.13;;;10.40;;
11048;SDS011;5577;42.706;23.160;2022-12-13T07:41:52;14.33;;;10.20;;
11048;SDS011;5577;42.706;23.160;2022-12-13T07:44:39;23.30;;;14.20;;
11048;SDS011;5577;42.706;23.160;2022-12-13T07:47:27;37.40;;;20.03;;
11048;SDS011;5577;42.706;23.160;2022-12-13T07:50:12;32.10;;;18.60;;
11048;SDS011;5577;42.706;23.160;2022-12-13T07:52:56;26.70;;;15.73;;
11048;SDS011;5577;42.706;23.160;2022-12-13T07:55:40;21.60;;;13.63;;
11048;SDS011;5577;42.706;23.160;2022-12-13T07:58:24;28.07;;;15.80;;
11048;SDS011;5577;42.706;23.160;2022-12-13T08:01:08;28.83;;;16.13;;
11048;SDS011;5577;42.706;23.160;2022-12-13T08:03:52;17.03;;;9.53;;
11048;SDS011;5577;42.706;23.160;2022-12-13T08:06:36;18.43;;;11.60;;
11048;SDS011;5577;42.706;23.160;2022-12-13T08:09:21;20.47;;;12.27;;
11048;SDS011;5577;42.706;23.160;2022-12-13T08:12:06;19.00;;;12.97;;
11048;SDS011;5577;42.706;23.160;2022-12-13T08:14:49;19.57;;;12.90;;
11048;SDS011;5577;42.706;23.160;2022-12-13T08:17:33;27.37;;;15.20;;
11048;SDS011;5577;42.706;23.160;2022-12-13T08:20:17;18.17;;;11.83;;
11048;SDS011;5577;42.706;23.160;2022-12-13T08:23:02;17.23;;;10.33;;
11048;SDS011;5577;42.706;23.160;2022-12-13T08:25:52;17.07;;;11.40;;
11048;SDS011;5577;42.706;23.160;2022-12-13T08:28:37;21.37;;;14.20;;
11048;SDS011;5577;42.706;23.160;2022-12-13T08:31:21;25.63;;;15.47;;
11048;SDS011;5577;42.706;23.160;2022-12-13T08:34:05;19.13;;;12.03;;
11048;SDS011;5577;42.706;23.160;2022-12-13T08:36:49;16.07;;;11.23;;
11048;SDS011;5577;42.706;23.160;2022-12-13T08:39:35;28.03;;;16.03;;
11048;SDS011;5577;42.706;23.160;2022-12-13T08:42:21;17.73;;;11.30;;
11048;SDS011;5577;42.706;23.160;2022-12-13T08:45:05;15.77;;;10.70;;
11048;SDS011;5577;42.706;23.160;2022-12-13T08:47:49;14.03;;;10.57;;
11048;SDS011;5577;42.706;23.160;2022-12-13T08:50:33;11.80;;;8.90;;
11048;SDS011;5577;42.706;23.160;2022-12-13T08:53:17;11.47;;;7.90;;
11048;SDS011;5577;42.706;23.160;2022-12-13T08:56:02;16.50;;;11.93;;
11048;SDS011;5577;42.706;23.160;2022-12-13T08:58:51;8.77;;;6.80;;
11048;SDS011;5577;42.706;23.160;2022-12-13T09:01:34;12.43;;;8.63;;
11048;SDS011;5577;42.706;23.160;2022-12-13T09:04:18;11.70;;;8.70;;
11048;SDS011;5577;42.706;23.160;2022-12-13T09:07:02;8.53;;;6.67;;
11048;SDS011;5577;42.706;23.160;2022-12-13T09:09:46;7.63;;;6.00;;
11048;SDS011;5577;42.706;23.160;2022-12-13T09:12:30;8.37;;;6.10;;
11048;SDS011;5577;42.706;23.160;2022-12-13T09:15:14;8.67;;;6.07;;
11048;SDS011;5577;42.706;23.160;2022-12-13T09:17:58;8.57;;;5.90;;
11048;SDS011;5577;42.706;23.160;2022-12-13T09:20:42;11.33;;;6.30;;
11048;SDS011;5577;42.706;23.160;2022-12-13T09:23:26;6.87;;;5.43;;
11048;SDS011;5577;42.706;23.160;2022-12-13T09:26:10;7.00;;;5.10;;
11048;SDS011;5577;42.706;23.160;2022-12-13T09:28:56;9.30;;;7.17;;
11048;SDS011;5577;42.706;23.160;2022-12-13T09:31:41;9.07;;;6.27;;
11048;SDS011;5577;42.706;23.160;2022-12-13T09:34:25;6.47;;;5.10;;
11048;SDS011;5577;42.706;23.160;2022-12-13T09:37:09;5.63;;;4.73;;
11048;SDS011;5577;42.706;23.160;2022-12-13T09:39:56;6.30;;;4.63;;
11048;SDS011;5577;42.706;23.160;2022-12-13T09:42:40;4.60;;;4.17;;
11048;SDS011;5577;42.706;23.160;2022-12-13T09:45:29;4.60;;;3.90;;
11048;SDS011;5577;42.706;23.160;2022-12-13T09:48:17;7.03;;;5.30;;
11048;SDS011;5577;42.706;23.160;2022-12-13T09:51:03;5.03;;;4.00;;
11048;SDS011;5577;42.706;23.160;2022-12-13T09:53:48;4.80;;;4.30;;
11048;SDS011;5577;42.706;23.160;2022-12-13T09:56:34;4.90;;;4.40;;
11048;SDS011;5577;42.706;23.160;2022-12-13T10:02:28;5.63;;;4.80;;
11048;SDS011;5577;42.706;23.160;2022-12-13T10:05:16;5.13;;;4.30;;
11048;SDS011;5577;42.706;23.160;2022-12-13T10:08:19;7.23;;;6.20;;
11048;SDS011;5577;42.706;23.160;2022-12-13T10:11:05;8.37;;;6.70;;
11048;SDS011;5577;42.706;23.160;2022-12-13T10:16:49;9.37;;;7.30;;
11048;SDS011;5577;42.706;23.160;2022-12-13T10:19:40;8.70;;;6.90;;
11048;SDS011;5577;42.706;23.160;2022-12-13T10:22:27;9.53;;;7.17;;
11048;SDS011;5577;42.706;23.160;2022-12-13T10:25:11;8.90;;;6.30;;
11048;SDS011;5577;42.706;23.160;2022-12-13T10:27:56;8.63;;;7.00;;
11048;SDS011;5577;42.706;23.160;2022-12-13T10:30:40;8.43;;;6.73;;
11048;SDS011;5577;42.706;23.160;2022-12-13T10:33:30;7.47;;;6.00;;
11048;SDS011;5577;42.706;23.160;2022-12-13T10:36:35;6.33;;;4.90;;
11048;SDS011;5577;42.706;23.160;2022-12-13T10:39:38;6.50;;;5.20;;
11048;SDS011;5577;42.706;23.160;2022-12-13T10:42:24;5.53;;;4.53;;
11048;SDS011;5577;42.706;23.160;2022-12-13T10:45:12;6.33;;;4.90;;
11048;SDS011;5577;42.706;23.160;2022-12-13T10:47:57;4.90;;;4.13;;
11048;SDS011;5577;42.706;23.160;2022-12-13T10:50:41;5.30;;;4.47;;
11048;SDS011;5577;42.706;23.160;2022-12-13T10:53:27;5.33;;;4.80;;
11048;SDS011;5577;42.706;23.160;2022-12-13T10:56:21;7.40;;;5.40;;
11048;SDS011;5577;42.706;23.160;2022-12-13T10:59:22;7.00;;;5.00;;
11048;SDS011;5577;42.706;23.160;2022-12-13T11:11:09;5.63;;;4.60;;
11048;SDS011;5577;42.706;23.160;2022-12-13T11:13:56;4.90;;;4.20;;
11048;SDS011;5577;42.706;23.160;2022-12-13T11:16:44;4.23;;;3.80;;
11048;SDS011;5577;42.706;23.160;2022-12-13T11:20:14;4.07;;;3.67;;
11048;SDS011;5577;42.706;23.160;2022-12-13T11:22:49;5.30;;;3.77;;
11048;SDS011;5577;42.706;23.160;2022-12-13T11:25:47;4.83;;;4.33;;
11048;SDS011;5577;42.706;23.160;2022-12-13T11:39:56;5.10;;;3.90;;
11048;SDS011;5577;42.706;23.160;2022-12-13T11:42:47;5.00;;;4.00;;
11048;SDS011;5577;42.706;23.160;2022-12-13T11:45:38;4.90;;;4.00;;
11048;SDS011;5577;42.706;23.160;2022-12-13T11:48:45;5.57;;;4.20;;
11048;SDS011;5577;42.706;23.160;2022-12-13T11:51:39;7.00;;;4.60;;
11048;SDS011;5577;42.706;23.160;2022-12-13T11:57:49;6.90;;;5.13;;
11048;SDS011;5577;42.706;23.160;2022-12-13T12:00:37;8.07;;;6.50;;
11048;SDS011;5577;42.706;23.160;2022-12-13T12:06:17;6.87;;;4.83;;
11048;SDS011;5577;42.706;23.160;2022-12-13T12:09:13;5.23;;;3.97;;
11048;SDS011;5577;42.706;23.160;2022-12-13T12:12:01;4.53;;;3.97;;
11048;SDS011;5577;42.706;23.160;2022-12-13T12:14:57;4.77;;;4.00;;
11048;SDS011;5577;42.706;23.160;2022-12-13T12:17:46;4.43;;;3.90;;
11048;SDS011;5577;42.706;23.160;2022-12-13T12:27:09;5.50;;;4.90;;
11048;SDS011;5577;42.706;23.160;2022-12-13T12:30:15;6.70;;;4.77;;
11048;SDS011;5577;42.706;23.160;2022-12-13T12:39:33;7.70;;;5.40;;
11048;SDS011;5577;42.706;23.160;2022-12-13T12:42:43;6.47;;;5.03;;
11048;SDS011;5577;42.706;23.160;2022-12-13T12:58:54;6.67;;;5.10;;
11048;SDS011;5577;42.706;23.160;2022-12-13T13:05:28;5.63;;;4.63;;
11048;SDS011;5577;42.706;23.160;2022-12-13T13:08:54;7.07;;;5.03;;
11048;SDS011;5577;42.706;23.160;2022-12-13T13:11:17;6.47;;;4.90;;
11048;SDS011;5577;42.706;23.160;2022-12-13T13:14:03;6.03;;;4.87;;
11048;SDS011;5577;42.706;23.160;2022-12-13T13:23:01;7.27;;;5.20;;
11048;SDS011;5577;42.706;23.160;2022-12-13T13:25:56;15.43;;;11.43;;
11048;SDS011;5577;42.706;23.160;2022-12-13T13:28:40;8.13;;;6.10;;
11048;SDS011;5577;42.706;23.160;2022-12-13T13:31:24;8.27;;;6.27;;
11048;SDS011;5577;42.706;23.160;2022-12-13T13:34:21;9.40;;;7.07;;
11048;SDS011;5577;42.706;23.160;2022-12-13T13:48:53;9.20;;;6.90;;
11048;SDS011;5577;42.706;23.160;2022-12-13T13:57:35;37.60;;;17.63;;
11048;SDS011;5577;42.706;23.160;2022-12-13T14:28:24;17.80;;;10.93;;
11048;SDS011;5577;42.706;23.160;2022-12-13T14:31:19;10.47;;;7.43;;
11048;SDS011;5577;42.706;23.160;2022-12-13T14:34:06;11.47;;;7.90;;
11048;SDS011;5577;42.706;23.160;2022-12-13T14:36:59;14.73;;;9.50;;
11048;SDS011;5577;42.706;23.160;2022-12-13T14:39:44;16.03;;;11.53;;
11048;SDS011;5577;42.706;23.160;2022-12-13T14:42:32;13.97;;;9.93;;
11048;SDS011;5577;42.706;23.160;2022-12-13T14:45:27;13.43;;;10.20;;
11048;SDS011;5577;42.706;23.160;2022-12-13T14:48:16;10.97;;;7.53;;
11048;SDS011;5577;42.706;23.160;2022-12-13T14:51:01;10.67;;;8.43;;
11048;SDS011;5577;42.706;23.160;2022-12-13T14:53:46;12.03;;;8.03;;
11048;SDS011;5577;42.706;23.160;2022-12-13T14:56:35;18.90;;;12.27;;
11048;SDS011;5577;42.706;23.160;2022-12-13T14:59:37;13.80;;;10.87;;
11048;SDS011;5577;42.706;23.160;2022-12-13T15:02:28;14.60;;;9.53;;
11048;SDS011;5577;42.706;23.160;2022-12-13T15:05:19;14.27;;;9.87;;
11048;SDS011;5577;42.706;23.160;2022-12-13T15:08:08;17.43;;;10.90;;
11048;SDS011;5577;42.706;23.160;2022-12-13T15:10:55;25.23;;;13.90;;
11048;SDS011;5577;42.706;23.160;2022-12-13T15:13:42;27.17;;;14.43;;
11048;SDS011;5577;42.706;23.160;2022-12-13T15:16:34;27.60;;;14.40;;
11048;SDS011;5577;42.706;23.160;2022-12-13T15:19:19;21.03;;;12.50;;
11048;SDS011;5577;42.706;23.160;2022-12-13T15:22:10;20.77;;;13.43;;
11048;SDS011;5577;42.706;23.160;2022-12-13T15:24:57;18.77;;;13.23;;
11048;SDS011;5577;42.706;23.160;2022-12-13T15:27:41;20.47;;;13.10;;
11048;SDS011;5577;42.706;23.160;2022-12-13T15:30:27;21.83;;;13.97;;
11048;SDS011;5577;42.706;23.160;2022-12-13T15:33:18;27.47;;;16.97;;
11048;SDS011;5577;42.706;23.160;2022-12-13T15:39:03;27.20;;;16.77;;
11048;SDS011;5577;42.706;23.160;2022-12-13T15:41:47;27.90;;;17.13;;
11048;SDS011;5577;42.706;23.160;2022-12-13T15:44:34;30.77;;;19.40;;
11048;SDS011;5577;42.706;23.160;2022-12-13T15:47:30;69.50;;;38.03;;
11048;SDS011;5577;42.706;23.160;2022-12-13T15:53:21;46.47;;;30.10;;
11048;SDS011;5577;42.706;23.160;2022-12-13T16:05:54;25.13;;;14.73;;
11048;SDS011;5577;42.706;23.160;2022-12-13T16:08:39;25.20;;;14.33;;
11048;SDS011;5577;42.706;23.160;2022-12-13T16:11:25;24.30;;;15.60;;
11048;SDS011;5577;42.706;23.160;2022-12-13T16:20:12;34.37;;;23.50;;
11048;SDS011;5577;42.706;23.160;2022-12-13T16:22:58;39.37;;;23.87;;
11048;SDS011;5577;42.706;23.160;2022-12-13T16:25:42;27.27;;;16.73;;
11048;SDS011;5577;42.706;23.160;2022-12-13T16:28:26;17.93;;;12.90;;
11048;SDS011;5577;42.706;23.160;2022-12-13T16:31:17;19.90;;;13.80;;
11048;SDS011;5577;42.706;23.160;2022-12-13T16:34:05;22.27;;;15.30;;
11048;SDS011;5577;42.706;23.160;2022-12-13T16:36:49;21.53;;;14.90;;
11048;SDS011;5577;42.706;23.160;2022-12-13T16:39:34;37.97;;;25.20;;
11048;SDS011;5577;42.706;23.160;2022-12-13T16:42:18;33.53;;;21.90;;
11048;SDS011;5577;42.706;23.160;2022-12-13T16:45:02;30.83;;;19.17;;
11048;SDS011;5577;42.706;23.160;2022-12-13T16:47:48;29.63;;;20.50;;
11048;SDS011;5577;42.706;23.160;2022-12-13T16:50:32;29.93;;;19.43;;
11048;SDS011;5577;42.706;23.160;2022-12-13T16:53:17;28.83;;;18.43;;
11048;SDS011;5577;42.706;23.160;2022-12-13T16:56:01;32.83;;;20.80;;
11048;SDS011;5577;42.706;23.160;2022-12-13T16:58:45;38.77;;;23.47;;
11048;SDS011;5577;42.706;23.160;2022-12-13T17:01:30;36.27;;;23.37;;
11048;SDS011;5577;42.706;23.160;2022-12-13T17:04:16;31.90;;;20.57;;
11048;SDS011;5577;42.706;23.160;2022-12-13T17:07:02;21.10;;;14.23;;
11048;SDS011;5577;42.706;23.160;2022-12-13T17:09:46;28.17;;;19.70;;
11048;SDS011;5577;42.706;23.160;2022-12-13T17:12:32;18.80;;;13.47;;
11048;SDS011;5577;42.706;23.160;2022-12-13T17:15:16;21.20;;;14.43;;
11048;SDS011;5577;42.706;23.160;2022-12-13T17:18:00;26.17;;;15.63;;
11048;SDS011;5577;42.706;23.160;2022-12-13T17:20:45;15.53;;;10.10;;
11048;SDS011;5577;42.706;23.160;2022-12-13T17:23:30;18.70;;;12.37;;
11048;SDS011;5577;42.706;23.160;2022-12-13T17:26:13;139.43;;;58.70;;
11048;SDS011;5577;42.706;23.160;2022-12-13T17:28:57;49.10;;;27.13;;
11048;SDS011;5577;42.706;23.160;2022-12-13T17:31:41;56.70;;;29.53;;
11048;SDS011;5577;42.706;23.160;2022-12-13T17:34:25;39.97;;;21.33;;
11048;SDS011;5577;42.706;23.160;2022-12-13T17:37:09;34.63;;;18.40;;
11048;SDS011;5577;42.706;23.160;2022-12-13T17:39:53;30.87;;;17.43;;
11048;SDS011;5577;42.706;23.160;2022-12-13T17:42:37;31.93;;;20.40;;
11048;SDS011;5577;42.706;23.160;2022-12-13T17:45:21;35.07;;;22.07;;
11048;SDS011;5577;42.706;23.160;2022-12-13T17:48:06;45.60;;;27.70;;
11048;SDS011;5577;42.706;23.160;2022-12-13T17:50:51;57.03;;;33.20;;
11048;SDS011;5577;42.706;23.160;2022-12-13T17:53:40;56.17;;;32.63;;
11048;SDS011;5577;42.706;23.160;2022-12-13T17:56:25;55.73;;;32.00;;
11048;SDS011;5577;42.706;23.160;2022-12-13T17:59:10;53.63;;;30.73;;
11048;SDS011;5577;42.706;23.160;2022-12-13T18:01:55;57.23;;;33.20;;
11048;SDS011;5577;42.706;23.160;2022-12-13T18:04:39;55.83;;;31.57;;
11048;SDS011;5577;42.706;23.160;2022-12-13T18:07:25;55.40;;;34.67;;
11048;SDS011;5577;42.706;23.160;2022-12-13T18:10:08;59.93;;;36.33;;
11048;SDS011;5577;42.706;23.160;2022-12-13T18:12:53;58.20;;;35.97;;
11048;SDS011;5577;42.706;23.160;2022-12-13T18:15:37;56.30;;;32.37;;
11048;SDS011;5577;42.706;23.160;2022-12-13T18:18:21;54.43;;;32.20;;
11048;SDS011;5577;42.706;23.160;2022-12-13T18:21:06;51.53;;;32.00;;
11048;SDS011;5577;42.706;23.160;2022-12-13T18:23:52;49.03;;;27.13;;
11048;SDS011;5577;42.706;23.160;2022-12-13T18:26:37;48.03;;;28.37;;
11048;SDS011;5577;42.706;23.160;2022-12-13T18:29:21;53.70;;;30.53;;
11048;SDS011;5577;42.706;23.160;2022-12-13T18:32:05;47.50;;;30.87;;
11048;SDS011;5577;42.706;23.160;2022-12-13T18:34:49;50.83;;;30.37;;
11048;SDS011;5577;42.706;23.160;2022-12-13T18:37:33;50.87;;;29.60;;
11048;SDS011;5577;42.706;23.160;2022-12-13T18:40:17;54.10;;;30.17;;
11048;SDS011;5577;42.706;23.160;2022-12-13T18:43:01;53.03;;;31.30;;
11048;SDS011;5577;42.706;23.160;2022-12-13T18:45:45;52.70;;;31.27;;
11048;SDS011;5577;42.706;23.160;2022-12-13T18:48:29;55.17;;;32.97;;
11048;SDS011;5577;42.706;23.160;2022-12-13T18:51:14;56.23;;;33.77;;
11048;SDS011;5577;42.706;23.160;2022-12-13T18:53:58;62.83;;;34.93;;
11048;SDS011;5577;42.706;23.160;2022-12-13T18:56:42;60.67;;;36.80;;
11048;SDS011;5577;42.706;23.160;2022-12-13T18:59:26;67.57;;;37.53;;
11048;SDS011;5577;42.706;23.160;2022-12-13T19:02:11;62.57;;;38.07;;
11048;SDS011;5577;42.706;23.160;2022-12-13T19:04:56;67.33;;;39.70;;
11048;SDS011;5577;42.706;23.160;2022-12-13T19:07:40;65.30;;;37.83;;
11048;SDS011;5577;42.706;23.160;2022-12-13T19:10:25;67.07;;;42.23;;
11048;SDS011;5577;42.706;23.160;2022-12-13T19:13:09;68.60;;;42.70;;
11048;SDS011;5577;42.706;23.160;2022-12-13T19:15:54;61.70;;;37.90;;